Al Cenac — WDF9939 — position and weather

sailwx.info

Track history (hours):
 
Tides and Currents Weather Stations Pressure Air Temp Water Temp Dewpoint Dewpoint Depression Visibility Wind Speed Wind Dir Waves Ship Positions

Al Cenac

Owner: Al Cenac Towing LLC, Houma, LA. More information available from US FCC via Universal Licensing System and Coast Guard Vessel Documentation Center.

Last reported at 2017-Nov-23 05:00 UTC. Time now 2017-Nov-23 05:28 UTC.
Position N 30°04' W 093°21'.

Length 22 m; draft 9.6 m.

Type: Tug. MMSI: 367510420.

Date/timePositionNaut miles runAvg speedWind from/ knotsBaromVisibWave heightAir tempDewpointWater temp
2017-Nov-23 05:00N 30°04' W 093°21'0 0.0
2017-Nov-23 04:30N 30°04' W 093°21'0 0.0
2017-Nov-23 04:01N 30°04' W 093°21'0 0.0
2017-Nov-23 03:31N 30°04' W 093°21'0 0.0
2017-Nov-23 03:01N 30°04' W 093°21'0 0.0
2017-Nov-23 02:31N 30°04' W 093°21'0 0.0
2017-Nov-23 02:01N 30°04' W 093°21'0 0.0
2017-Nov-23 01:31N 30°04' W 093°21'1 1.5
2017-Nov-23 01:00N 30°04' W 093°22'3 5.1
2017-Nov-23 00:31N 30°04' W 093°25'0 0.1
2017-Nov-23 00:01N 30°04' W 093°25'0 0.1
2017-Nov-22 23:31N 30°04' W 093°25'0 0.0
2017-Nov-22 23:00N 30°04' W 093°25'0 0.0
2017-Nov-22 22:31N 30°04' W 093°25'0 0.0
2017-Nov-22 22:01N 30°04' W 093°25'0 0.0
2017-Nov-22 21:31N 30°04' W 093°25'0 0.0
2017-Nov-22 21:01N 30°04' W 093°25'0 0.0
2017-Nov-22 20:31N 30°04' W 093°25'0 0.0
2017-Nov-22 20:00N 30°04' W 093°25'0 0.0
2017-Nov-22 19:31N 30°04' W 093°25'  
2017-Nov-18 21:58N 29°46' W 095°05'0 0.0
2017-Nov-18 19:12N 29°46' W 095°05'3 0.1
2017-Nov-17 01:13N 29°44' W 095°07'2 6.6
2017-Nov-17 00:57N 29°44' W 095°09'3 0.2
2017-Nov-16 12:09N 29°44' W 095°12'0 0.0
2017-Nov-16 12:00N 29°44' W 095°12'0 0.0
2017-Nov-16 11:29N 29°44' W 095°12'0 0.0
2017-Nov-16 11:00N 29°44' W 095°12'0 0.0
2017-Nov-16 10:30N 29°44' W 095°12'0 0.0
2017-Nov-16 10:00N 29°44' W 095°12'0 0.0
2017-Nov-16 09:27N 29°44' W 095°12'0 0.0
2017-Nov-16 09:00N 29°44' W 095°12'0 0.0
2017-Nov-16 08:25N 29°44' W 095°12'0 0.0
2017-Nov-16 07:58N 29°44' W 095°12'0 0.0
2017-Nov-16 07:28N 29°44' W 095°12'0 0.0
2017-Nov-16 01:38N 29°44' W 095°12'0 0.3
2017-Nov-16 00:12N 29°44' W 095°12'1 4.5
2017-Nov-16 00:00N 29°45' W 095°11'4 5.8
2017-Nov-15 23:21N 29°44' W 095°07'4 4.0
2017-Nov-15 22:18N 29°48' W 095°04'1 0.0
2017-Nov-14 02:55N 29°47' W 095°05'  
Track history (hours):
 
Tides and Currents Weather Stations Pressure Air Temp Water Temp Dewpoint Dewpoint Depression Visibility Wind Speed Wind Dir Waves Ship Positions

Al Cenac

Owner: Al Cenac Towing LLC, Houma, LA. More information available from US FCC via Universal Licensing System and Coast Guard Vessel Documentation Center.

Last reported at 2017-Nov-23 05:00 UTC. Time now 2017-Nov-23 05:28 UTC.
Position N 30°04' W 093°21'.

Length 22 m; draft 9.6 m.

Type: Tug. MMSI: 367510420.

Date/timePositionNaut miles runAvg speedWind from/ knotsBaromVisibWave heightAir tempDewpointWater temp
2017-Nov-23 05:00N 30°04' W 093°21'0 0.0
2017-Nov-23 04:30N 30°04' W 093°21'0 0.0
2017-Nov-23 04:01N 30°04' W 093°21'0 0.0
2017-Nov-23 03:31N 30°04' W 093°21'0 0.0
2017-Nov-23 03:01N 30°04' W 093°21'0 0.0
2017-Nov-23 02:31N 30°04' W 093°21'0 0.0
2017-Nov-23 02:01N 30°04' W 093°21'0 0.0
2017-Nov-23 01:31N 30°04' W 093°21'1 1.5
2017-Nov-23 01:00N 30°04' W 093°22'3 5.1
2017-Nov-23 00:31N 30°04' W 093°25'0 0.1
2017-Nov-23 00:01N 30°04' W 093°25'0 0.1
2017-Nov-22 23:31N 30°04' W 093°25'0 0.0
2017-Nov-22 23:00N 30°04' W 093°25'0 0.0
2017-Nov-22 22:31N 30°04' W 093°25'0 0.0
2017-Nov-22 22:01N 30°04' W 093°25'0 0.0
2017-Nov-22 21:31N 30°04' W 093°25'0 0.0
2017-Nov-22 21:01N 30°04' W 093°25'0 0.0
2017-Nov-22 20:31N 30°04' W 093°25'0 0.0
2017-Nov-22 20:00N 30°04' W 093°25'0 0.0
2017-Nov-22 19:31N 30°04' W 093°25'  
2017-Nov-18 21:58N 29°46' W 095°05'0 0.0
2017-Nov-18 19:12N 29°46' W 095°05'3 0.1
2017-Nov-17 01:13N 29°44' W 095°07'2 6.6
2017-Nov-17 00:57N 29°44' W 095°09'3 0.2
2017-Nov-16 12:09N 29°44' W 095°12'0 0.0
2017-Nov-16 12:00N 29°44' W 095°12'0 0.0
2017-Nov-16 11:29N 29°44' W 095°12'0 0.0
2017-Nov-16 11:00N 29°44' W 095°12'0 0.0
2017-Nov-16 10:30N 29°44' W 095°12'0 0.0
2017-Nov-16 10:00N 29°44' W 095°12'0 0.0
2017-Nov-16 09:27N 29°44' W 095°12'0 0.0
2017-Nov-16 09:00N 29°44' W 095°12'0 0.0
2017-Nov-16 08:25N 29°44' W 095°12'0 0.0
2017-Nov-16 07:58N 29°44' W 095°12'0 0.0
2017-Nov-16 07:28N 29°44' W 095°12'0 0.0
2017-Nov-16 01:38N 29°44' W 095°12'0 0.3
2017-Nov-16 00:12N 29°44' W 095°12'1 4.5
2017-Nov-16 00:00N 29°45' W 095°11'4 5.8
2017-Nov-15 23:21N 29°44' W 095°07'4 4.0
2017-Nov-15 22:18N 29°48' W 095°04'1 0.0
2017-Nov-14 02:55N 29°47' W 095°05'  

Dump ship's entire track history